createdAt,value
2022-10-22T00:00:59.616Z,54.62
2022-10-22T00:03:36.856Z,54.79
2022-10-22T00:06:05.497Z,54.33
2022-10-22T00:08:33.570Z,54.53
2022-10-22T00:11:09.717Z,55.00
2022-10-22T00:13:37.860Z,54.45
2022-10-22T00:16:06.345Z,54.87
2022-10-22T00:18:35.712Z,54.50
2022-10-22T00:21:04.050Z,54.54
2022-10-22T00:23:31.974Z,54.41
2022-10-22T00:26:00.039Z,54.64
2022-10-22T00:28:27.938Z,54.56
2022-10-22T00:30:57.734Z,54.60
2022-10-22T00:33:27.151Z,54.65
2022-10-22T00:35:55.224Z,54.27
2022-10-22T00:38:23.320Z,54.25
2022-10-22T00:40:51.766Z,54.16
2022-10-22T00:43:20.593Z,53.85
2022-10-22T00:45:48.423Z,53.70
2022-10-22T00:48:23.602Z,54.14
2022-10-22T00:50:59.955Z,53.75
2022-10-22T00:53:44.674Z,54.07
2022-10-22T00:56:12.853Z,53.79
2022-10-22T00:58:52.585Z,53.91
2022-10-22T01:01:25.088Z,54.39
2022-10-22T01:03:53.879Z,54.37
2022-10-22T01:06:26.223Z,54.59
2022-10-22T01:09:09.545Z,54.41
2022-10-22T01:11:49.966Z,54.04
2022-10-22T01:14:21.330Z,54.23
2022-10-22T01:17:08.364Z,53.70
2022-10-22T01:19:48.884Z,53.99
2022-10-22T01:22:23.940Z,54.19
2022-10-22T01:25:10.825Z,54.26
2022-10-22T01:28:00.044Z,53.90
2022-10-22T01:30:28.414Z,53.93
2022-10-22T01:33:02.279Z,53.97
2022-10-22T01:35:36.186Z,53.39
2022-10-22T01:38:09.076Z,53.62
2022-10-22T01:40:38.358Z,53.40
2022-10-22T01:43:08.585Z,53.00
2022-10-22T01:45:41.438Z,52.95
2022-10-22T01:48:47.084Z,53.26
2022-10-22T01:51:15.252Z,52.99
2022-10-22T01:54:32.543Z,53.36
2022-10-22T01:57:42.928Z,53.06
2022-10-22T02:00:14.785Z,53.76
2022-10-22T02:02:55.341Z,54.12
2022-10-22T02:05:28.666Z,54.00
2022-10-22T02:08:02.472Z,53.73
2022-10-22T02:10:30.942Z,53.35
2022-10-22T02:13:01.490Z,53.71
2022-10-22T02:15:33.731Z,54.08
2022-10-22T02:18:03.356Z,53.99
2022-10-22T02:20:37.567Z,53.47
2022-10-22T02:23:05.829Z,53.11
2022-10-22T02:25:41.310Z,52.84
2022-10-22T02:28:32.586Z,52.83
2022-10-22T02:31:13.737Z,52.85
2022-10-22T02:33:48.884Z,52.62
2022-10-22T02:36:18.411Z,52.30
2022-10-22T02:38:49.254Z,52.67
2022-10-22T02:41:18.943Z,52.74
2022-10-22T02:43:53.847Z,52.45
2022-10-22T02:46:22.252Z,53.15
2022-10-22T02:48:50.309Z,53.38
2022-10-22T02:51:18.263Z,53.61
2022-10-22T02:53:46.249Z,53.53
2022-10-22T02:56:14.702Z,53.42
2022-10-22T02:58:42.679Z,53.72
2022-10-22T03:01:13.765Z,53.43
2022-10-22T03:03:44.138Z,53.60
2022-10-22T03:06:12.746Z,53.47
2022-10-22T03:08:41.255Z,53.26
2022-10-22T03:11:09.242Z,53.16
2022-10-22T03:13:37.520Z,53.05
2022-10-22T03:16:06.431Z,52.95
2022-10-22T03:18:34.773Z,53.23
2022-10-22T03:21:14.694Z,53.08
2022-10-22T03:23:43.735Z,53.27
2022-10-22T03:26:14.199Z,53.41
2022-10-22T03:28:42.899Z,53.11
2022-10-22T03:31:11.018Z,53.46
2022-10-22T03:33:39.011Z,53.62
2022-10-22T03:36:08.490Z,53.47
2022-10-22T03:38:41.159Z,53.06
2022-10-22T03:41:10.347Z,52.95
2022-10-22T03:43:39.231Z,53.45
2022-10-22T03:46:07.848Z,53.47
2022-10-22T03:48:35.854Z,52.76
2022-10-22T03:51:04.826Z,53.11
2022-10-22T03:53:33.068Z,52.95
2022-10-22T03:56:00.933Z,52.51
2022-10-22T03:58:28.894Z,52.75
2022-10-22T04:00:56.864Z,52.74
2022-10-22T04:03:25.154Z,52.80
2022-10-22T04:05:53.312Z,52.36
2022-10-22T04:08:21.287Z,52.28
2022-10-22T04:10:52.406Z,51.87
2022-10-22T04:13:20.389Z,52.43
2022-10-22T04:15:48.281Z,52.37
2022-10-22T04:18:16.514Z,52.37
2022-10-22T04:20:44.670Z,52.59
2022-10-22T04:23:13.597Z,52.36
2022-10-22T04:25:41.455Z,52.67
2022-10-22T04:28:10.811Z,52.61
2022-10-22T04:30:38.725Z,52.72
2022-10-22T04:33:06.721Z,52.24
2022-10-22T04:35:38.823Z,52.32
2022-10-22T04:38:06.793Z,52.14
2022-10-22T04:40:34.769Z,52.36
2022-10-22T04:43:02.730Z,52.50
2022-10-22T04:45:31.071Z,52.44
2022-10-22T04:47:58.916Z,52.05
2022-10-22T04:50:27.003Z,51.82
2022-10-22T04:52:55.034Z,51.72
2022-10-22T04:55:23.025Z,51.90
2022-10-22T04:57:51.014Z,51.38
2022-10-22T05:00:19.115Z,51.36
2022-10-22T05:02:51.139Z,51.07
2022-10-22T05:05:19.554Z,51.40
2022-10-22T05:07:47.530Z,51.44
2022-10-22T05:10:15.507Z,51.67
2022-10-22T05:12:43.461Z,51.11
2022-10-22T05:15:11.544Z,51.19
2022-10-22T05:17:39.762Z,51.15
2022-10-22T05:20:09.331Z,51.17
2022-10-22T05:22:37.402Z,50.97
2022-10-22T05:25:05.767Z,50.91
2022-10-22T05:27:33.797Z,50.70
2022-10-22T05:30:01.817Z,50.43
2022-10-22T05:32:29.655Z,50.71
2022-10-22T05:34:57.852Z,50.31
2022-10-22T05:37:25.828Z,50.34
2022-10-22T05:40:01.809Z,49.90
2022-10-22T05:42:40.986Z,49.99
2022-10-22T05:45:09.586Z,50.16
2022-10-22T05:47:37.465Z,50.17
2022-10-22T05:50:05.981Z,50.40
2022-10-22T05:52:33.944Z,49.94
2022-10-22T05:55:02.132Z,49.91
2022-10-22T05:57:30.099Z,50.24
2022-10-22T05:59:58.079Z,49.97
2022-10-22T06:02:26.037Z,50.52
2022-10-22T06:04:54.013Z,49.62
2022-10-22T06:07:23.216Z,50.23
2022-10-22T06:09:51.287Z,50.30
2022-10-22T06:12:19.918Z,50.06
2022-10-22T06:14:47.848Z,50.10
2022-10-22T06:17:16.054Z,50.27
2022-10-22T06:19:43.994Z,50.20
2022-10-22T06:22:11.907Z,50.02
2022-10-22T06:24:41.639Z,50.55
2022-10-22T06:27:13.013Z,50.03
2022-10-22T06:29:41.188Z,50.58
2022-10-22T06:32:09.140Z,50.53
2022-10-22T06:34:37.263Z,50.84
2022-10-22T06:37:05.208Z,50.47
2022-10-22T06:39:33.169Z,50.14
2022-10-22T06:42:01.503Z,50.39
2022-10-22T06:44:29.479Z,50.39
2022-10-22T06:46:57.466Z,50.03
2022-10-22T06:49:25.471Z,49.85
2022-10-22T06:51:54.520Z,49.60
2022-10-22T06:54:23.535Z,49.63
2022-10-22T06:56:51.711Z,49.76
2022-10-22T06:59:19.642Z,49.88
2022-10-22T07:01:47.687Z,49.95
2022-10-22T07:04:15.739Z,49.51
2022-10-22T07:06:43.721Z,49.58
2022-10-22T07:09:11.883Z,49.37
2022-10-22T07:11:45.729Z,49.65
2022-10-22T07:14:14.944Z,49.57
2022-10-22T07:16:42.899Z,49.60
2022-10-22T07:19:10.964Z,49.63
2022-10-22T07:21:39.044Z,49.21
2022-10-22T07:24:07.258Z,49.35
2022-10-22T07:26:35.444Z,49.22
2022-10-22T07:29:03.856Z,49.51
2022-10-22T07:31:31.986Z,49.36
2022-10-22T07:34:00.131Z,49.51
2022-10-22T07:36:28.111Z,49.29
2022-10-22T07:38:58.214Z,49.36
2022-10-22T07:41:28.150Z,48.96
2022-10-22T07:43:57.493Z,49.42
2022-10-22T07:46:27.004Z,49.34
2022-10-22T07:48:55.229Z,49.24
2022-10-22T07:51:23.196Z,49.00
2022-10-22T07:53:51.146Z,49.04
2022-10-22T07:56:19.549Z,48.89
2022-10-22T07:58:47.637Z,49.05
2022-10-22T08:01:15.632Z,48.78
2022-10-22T08:03:44.571Z,48.76
2022-10-22T08:06:15.975Z,48.62
2022-10-22T08:08:44.777Z,48.44
2022-10-22T08:11:13.126Z,48.33
2022-10-22T08:13:45.044Z,48.45
2022-10-22T08:16:14.831Z,48.12
2022-10-22T08:18:43.006Z,48.17
2022-10-22T08:21:12.594Z,48.06
2022-10-22T08:23:40.665Z,48.17
2022-10-22T08:26:09.279Z,48.13
2022-10-22T08:28:37.865Z,47.97
2022-10-22T08:31:07.739Z,47.76
2022-10-22T08:33:36.026Z,47.98
2022-10-22T08:36:05.498Z,47.56
2022-10-22T08:38:33.612Z,47.39
2022-10-22T08:41:12.175Z,47.44
2022-10-22T08:44:17.042Z,47.37
2022-10-22T08:47:24.366Z,46.57
2022-10-22T08:49:54.718Z,46.64
2022-10-22T08:52:22.670Z,46.53
2022-10-22T08:54:58.976Z,46.46
2022-10-22T08:58:11.834Z,46.24
2022-10-22T09:00:52.572Z,46.15
2022-10-22T09:03:56.943Z,46.18
2022-10-22T09:06:28.465Z,46.01
2022-10-22T09:08:58.713Z,45.82
2022-10-22T09:11:28.815Z,45.84
2022-10-22T09:13:57.604Z,45.92
2022-10-22T09:16:53.044Z,45.78
2022-10-22T09:19:36.079Z,45.51
2022-10-22T09:22:18.864Z,45.52
2022-10-22T09:24:49.397Z,45.47
2022-10-22T09:27:26.448Z,45.21
2022-10-22T09:29:54.558Z,45.13
2022-10-22T09:32:23.434Z,45.23
2022-10-22T09:34:57.203Z,44.87
2022-10-22T09:37:28.462Z,44.82
2022-10-22T09:39:57.810Z,44.64
2022-10-22T09:42:25.884Z,44.81
2022-10-22T09:44:57.978Z,44.74
2022-10-22T09:48:00.927Z,44.57
2022-10-22T09:50:43.099Z,44.37
2022-10-22T09:53:28.932Z,44.58
2022-10-22T09:56:00.900Z,44.56
2022-10-22T09:58:28.818Z,44.30
2022-10-22T10:00:59.266Z,44.43
2022-10-22T10:03:32.205Z,44.22
2022-10-22T10:06:04.978Z,44.31
2022-10-22T10:08:34.798Z,44.23
2022-10-22T10:11:11.863Z,44.26
2022-10-22T10:13:39.795Z,44.50
2022-10-22T10:16:40.732Z,44.72
2022-10-22T10:19:15.256Z,44.99
2022-10-22T10:22:29.753Z,45.04
2022-10-22T10:25:39.619Z,45.15
2022-10-22T10:28:39.826Z,45.22
2022-10-22T10:31:19.886Z,45.38
2022-10-22T10:33:53.971Z,45.49
2022-10-22T10:36:55.120Z,45.54
2022-10-22T10:39:48.879Z,45.42
2022-10-22T10:42:41.955Z,45.30
2022-10-22T10:45:50.333Z,45.18
2022-10-22T10:48:38.864Z,45.13
2022-10-22T10:51:30.271Z,45.23
2022-10-22T10:53:58.454Z,45.39
2022-10-22T10:56:35.609Z,45.28
2022-10-22T10:59:18.138Z,45.44
2022-10-22T11:01:51.878Z,45.50
2022-10-22T11:04:47.755Z,45.61
2022-10-22T11:07:34.096Z,45.61
2022-10-22T11:10:14.178Z,45.87
2022-10-22T11:12:45.917Z,45.62
2022-10-22T11:15:35.750Z,45.61
2022-10-22T11:18:20.311Z,45.69
2022-10-22T11:21:10.354Z,45.67
2022-10-22T11:23:48.505Z,45.96
2022-10-22T11:26:34.444Z,45.99
2022-10-22T11:29:06.106Z,45.96
2022-10-22T11:31:34.587Z,45.88
2022-10-22T11:34:31.992Z,45.88
2022-10-22T11:37:00.108Z,46.00
2022-10-22T11:39:46.507Z,45.71
2022-10-22T11:42:21.138Z,45.81
2022-10-22T11:44:59.975Z,46.05
2022-10-22T11:47:33.852Z,45.94
2022-10-22T11:50:19.252Z,46.06
2022-10-22T11:53:17.295Z,46.46
2022-10-22T11:55:47.716Z,46.28
2022-10-22T11:58:37.389Z,46.35
2022-10-22T12:01:08.434Z,46.43
2022-10-22T12:03:59.222Z,46.34
2022-10-22T12:06:28.224Z,46.33
2022-10-22T12:09:03.065Z,46.46
2022-10-22T12:11:39.811Z,46.53
2022-10-22T12:14:26.323Z,46.52
2022-10-22T12:17:02.889Z,46.24
2022-10-22T12:20:11.399Z,46.14
2022-10-22T12:22:40.386Z,46.13
2022-10-22T12:25:34.789Z,45.98
2022-10-22T12:28:04.584Z,46.03
2022-10-22T12:30:36.848Z,45.75
2022-10-22T12:33:07.973Z,45.58
2022-10-22T12:35:44.372Z,45.33
2022-10-22T12:38:23.692Z,45.25
2022-10-22T12:40:56.826Z,45.38
2022-10-22T12:43:28.130Z,45.29
2022-10-22T12:45:59.017Z,45.21
2022-10-22T12:48:32.642Z,45.12
2022-10-22T12:51:04.335Z,45.08
2022-10-22T12:53:35.786Z,44.89
2022-10-22T12:56:12.493Z,44.71
2022-10-22T12:58:52.096Z,44.69
2022-10-22T13:01:20.274Z,44.80
2022-10-22T13:03:51.396Z,45.04
2022-10-22T13:06:19.297Z,45.11
2022-10-22T13:08:59.750Z,45.13
2022-10-22T13:11:42.840Z,45.09
2022-10-22T13:14:21.325Z,45.18
2022-10-22T13:17:12.799Z,45.07
2022-10-22T13:19:52.948Z,45.21
2022-10-22T13:22:25.420Z,45.40
2022-10-22T13:24:53.957Z,45.56
2022-10-22T13:27:23.877Z,45.68
2022-10-22T13:29:51.869Z,45.65
2022-10-22T13:32:40.440Z,45.74
2022-10-22T13:35:16.192Z,45.96
2022-10-22T13:37:44.358Z,46.11
2022-10-22T13:40:13.570Z,46.07
2022-10-22T13:42:41.739Z,46.12
2022-10-22T13:45:10.660Z,46.50
2022-10-22T13:47:38.723Z,46.50
2022-10-22T13:50:18.194Z,47.01
2022-10-22T13:52:50.329Z,47.33
2022-10-22T13:55:23.826Z,47.36
2022-10-22T13:57:55.588Z,47.26
2022-10-22T14:00:26.496Z,47.22
2022-10-22T14:02:58.451Z,47.17
2022-10-22T14:05:26.770Z,47.11
2022-10-22T14:07:54.750Z,47.51
2022-10-22T14:10:24.913Z,48.08
2022-10-22T14:12:53.690Z,48.34
2022-10-22T14:15:24.090Z,48.23
2022-10-22T14:17:56.881Z,48.31
2022-10-22T14:20:31.193Z,48.26
2022-10-22T14:23:27.305Z,48.50
2022-10-22T14:25:56.668Z,48.61
2022-10-22T14:28:25.014Z,48.71
2022-10-22T14:30:55.844Z,48.75
2022-10-22T14:33:30.554Z,48.82
2022-10-22T14:36:00.808Z,48.44
2022-10-22T14:38:29.687Z,48.29
2022-10-22T14:40:59.642Z,48.19
2022-10-22T14:43:30.235Z,48.09
2022-10-22T14:45:58.613Z,47.81
2022-10-22T14:48:26.691Z,47.70
2022-10-22T14:50:55.178Z,47.80
2022-10-22T14:53:23.251Z,47.83
2022-10-22T14:55:51.225Z,47.83
2022-10-22T14:58:19.303Z,47.93
2022-10-22T15:00:47.305Z,48.13
2022-10-22T15:03:15.351Z,48.00
2022-10-22T15:05:45.027Z,48.22
2022-10-22T15:08:14.784Z,48.15
2022-10-22T15:10:43.059Z,48.17
2022-10-22T15:13:11.404Z,48.38
2022-10-22T15:15:42.486Z,48.17
2022-10-22T15:18:10.404Z,48.21
2022-10-22T15:20:38.451Z,48.15
2022-10-22T15:23:06.315Z,48.13
2022-10-22T15:25:34.384Z,48.15
2022-10-22T15:28:09.442Z,48.21
2022-10-22T15:30:38.031Z,48.10
2022-10-22T15:33:06.590Z,48.24
2022-10-22T15:35:34.671Z,48.33
2022-10-22T15:38:02.945Z,48.22
2022-10-22T15:40:31.330Z,48.42
2022-10-22T15:42:59.406Z,48.52
2022-10-22T15:45:27.275Z,48.59
2022-10-22T15:47:55.353Z,48.73
2022-10-22T15:50:23.327Z,48.48
2022-10-22T15:52:51.230Z,48.35
2022-10-22T15:55:19.274Z,48.69
2022-10-22T15:57:47.559Z,48.76
2022-10-22T16:00:15.944Z,48.96
2022-10-22T16:02:44.524Z,48.99
2022-10-22T16:05:12.606Z,48.88
2022-10-22T16:07:40.823Z,49.35
2022-10-22T16:10:09.684Z,49.19
2022-10-22T16:12:37.750Z,49.22
2022-10-22T16:15:06.377Z,49.10
2022-10-22T16:17:34.319Z,49.03
2022-10-22T16:20:02.490Z,49.13
2022-10-22T16:22:30.520Z,48.76
2022-10-22T16:24:58.590Z,49.03
2022-10-22T16:27:26.517Z,48.88
2022-10-22T16:29:54.486Z,48.59
2022-10-22T16:32:22.871Z,48.58
2022-10-22T16:34:50.688Z,48.68
2022-10-22T16:37:18.721Z,48.51
2022-10-22T16:39:46.794Z,48.50
2022-10-22T16:42:14.765Z,48.46
2022-10-22T16:44:43.050Z,48.27
2022-10-22T16:47:11.122Z,48.35
2022-10-22T16:49:39.197Z,48.47
2022-10-22T16:52:07.581Z,48.71
2022-10-22T16:54:35.558Z,49.24
2022-10-22T16:57:03.527Z,49.47
2022-10-22T16:59:31.501Z,49.56
2022-10-22T17:01:59.617Z,49.85
2022-10-22T17:04:27.652Z,50.00
2022-10-22T17:06:55.956Z,50.01
2022-10-22T17:09:24.322Z,50.22
2022-10-22T17:11:52.699Z,50.01
2022-10-22T17:14:21.490Z,50.03
2022-10-22T17:16:49.568Z,50.19
2022-10-22T17:19:17.849Z,49.98
2022-10-22T17:21:46.518Z,50.00
2022-10-22T17:24:15.233Z,49.95
2022-10-22T17:26:43.713Z,49.97
2022-10-22T17:29:13.328Z,50.28
2022-10-22T17:31:41.813Z,50.21
2022-10-22T17:34:15.311Z,50.21
2022-10-22T17:36:44.358Z,49.80
2022-10-22T17:39:17.437Z,49.83
2022-10-22T17:41:45.533Z,49.89
2022-10-22T17:44:13.754Z,49.87
2022-10-22T17:46:41.629Z,49.85
2022-10-22T17:49:19.248Z,49.39
2022-10-22T17:51:47.910Z,49.07
2022-10-22T17:54:16.089Z,49.19
2022-10-22T17:56:44.161Z,49.34
2022-10-22T17:59:14.837Z,49.27
2022-10-22T18:01:43.122Z,49.15
2022-10-22T18:04:15.376Z,49.33
2022-10-22T18:06:43.363Z,49.14
2022-10-22T18:09:14.434Z,49.43
2022-10-22T18:11:45.481Z,49.73
2022-10-22T18:14:13.489Z,50.03
2022-10-22T18:16:41.461Z,50.47
2022-10-22T18:19:10.150Z,50.42
2022-10-22T18:21:38.132Z,50.50
2022-10-22T18:24:06.609Z,51.08
2022-10-22T18:26:34.688Z,51.32
2022-10-22T18:29:02.862Z,51.15
2022-10-22T18:31:30.836Z,51.34
2022-10-22T18:33:59.326Z,51.48
2022-10-22T18:36:28.215Z,51.61
2022-10-22T18:38:58.803Z,51.44
2022-10-22T18:41:28.563Z,51.08
2022-10-22T18:43:59.301Z,51.59
2022-10-22T18:46:28.921Z,51.37
2022-10-22T18:48:58.535Z,51.38
2022-10-22T18:51:29.056Z,51.23
2022-10-22T18:54:05.310Z,51.65
2022-10-22T18:56:40.356Z,51.84
2022-10-22T18:59:23.270Z,52.04
2022-10-22T19:01:56.561Z,51.74
2022-10-22T19:04:24.426Z,52.04
2022-10-22T19:06:52.509Z,51.94
2022-10-22T19:09:24.271Z,51.97
2022-10-22T19:11:52.347Z,51.95
2022-10-22T19:14:20.318Z,51.96
2022-10-22T19:16:49.625Z,51.84
2022-10-22T19:19:19.722Z,51.84
2022-10-22T19:21:48.909Z,51.98
2022-10-22T19:24:19.090Z,52.11
2022-10-22T19:26:48.581Z,52.04
2022-10-22T19:29:18.986Z,51.67
2022-10-22T19:31:47.700Z,51.58
2022-10-22T19:34:16.079Z,51.81
2022-10-22T19:36:43.952Z,51.79
2022-10-22T19:39:15.656Z,51.74
2022-10-22T19:41:43.888Z,51.77
2022-10-22T19:44:11.877Z,51.69
2022-10-22T19:46:39.836Z,51.83
2022-10-22T19:49:07.813Z,52.14
2022-10-22T19:51:35.774Z,52.44
2022-10-22T19:54:06.323Z,52.37
2022-10-22T19:56:36.212Z,51.98
2022-10-22T19:59:05.746Z,52.38
2022-10-22T20:01:33.768Z,52.26
2022-10-22T20:04:01.909Z,52.64
2022-10-22T20:06:30.994Z,52.43
2022-10-22T20:08:58.912Z,52.59
2022-10-22T20:11:30.038Z,52.50
2022-10-22T20:13:58.908Z,52.47
2022-10-22T20:16:29.342Z,52.12
2022-10-22T20:19:02.631Z,52.38
2022-10-22T20:21:31.257Z,52.70
2022-10-22T20:24:00.070Z,52.71
2022-10-22T20:26:28.806Z,52.37
2022-10-22T20:28:58.010Z,52.00
2022-10-22T20:31:28.934Z,52.14
2022-10-22T20:33:58.465Z,52.16
2022-10-22T20:36:28.303Z,51.86
2022-10-22T20:39:02.488Z,51.50
2022-10-22T20:41:30.473Z,51.38
2022-10-22T20:43:58.419Z,51.45
2022-10-22T20:46:35.319Z,51.72
2022-10-22T20:49:09.635Z,51.68
2022-10-22T20:51:38.217Z,51.39
2022-10-22T20:54:07.691Z,51.36
2022-10-22T20:56:38.193Z,51.37
2022-10-22T20:59:07.438Z,51.03
2022-10-22T21:02:02.245Z,51.24
2022-10-22T21:04:30.763Z,51.42
2022-10-22T21:06:58.705Z,51.70
2022-10-22T21:09:27.122Z,51.27
2022-10-22T21:11:55.203Z,50.92
2022-10-22T21:14:23.341Z,51.07
2022-10-22T21:16:51.786Z,50.94
2022-10-22T21:19:21.027Z,51.27
2022-10-22T21:21:49.732Z,50.95
2022-10-22T21:24:18.203Z,51.04
2022-10-22T21:26:46.095Z,51.71
2022-10-22T21:29:14.762Z,51.45
2022-10-22T21:31:43.945Z,51.64
2022-10-22T21:34:13.019Z,51.82
2022-10-22T21:36:41.519Z,51.57
2022-10-22T21:39:09.656Z,51.22
2022-10-22T21:41:38.013Z,51.10
2022-10-22T21:44:06.594Z,51.18
2022-10-22T21:46:35.276Z,51.88
2022-10-22T21:49:04.351Z,51.65
2022-10-22T21:51:34.610Z,51.40
2022-10-22T21:54:02.707Z,51.07
2022-10-22T21:56:35.270Z,51.01
2022-10-22T21:59:05.572Z,51.32
2022-10-22T22:01:33.918Z,51.36
2022-10-22T22:04:02.771Z,51.22
2022-10-22T22:06:33.445Z,51.20
2022-10-22T22:09:04.139Z,51.14
2022-10-22T22:11:32.925Z,51.22
2022-10-22T22:14:00.802Z,51.58
2022-10-22T22:16:32.795Z,51.38
2022-10-22T22:21:40.276Z,51.65
2022-10-22T22:24:10.922Z,51.48
2022-10-22T22:26:40.071Z,51.56
2022-10-22T22:29:08.083Z,51.71
2022-10-22T22:31:37.026Z,51.30
2022-10-22T22:34:08.406Z,51.56
2022-10-22T22:36:40.401Z,51.92
2022-10-22T22:39:12.672Z,51.32
2022-10-22T22:41:41.607Z,51.29
2022-10-22T22:44:10.154Z,51.29
2022-10-22T22:46:38.434Z,51.29
2022-10-22T22:49:06.923Z,51.44
2022-10-22T22:51:35.140Z,51.35
2022-10-22T22:54:03.482Z,51.34
2022-10-22T22:56:32.890Z,51.26
2022-10-22T22:59:01.741Z,51.16
2022-10-22T23:01:39.716Z,51.47
2022-10-22T23:04:12.710Z,51.09
2022-10-22T23:06:40.953Z,51.19
2022-10-22T23:09:11.884Z,51.22
2022-10-22T23:11:42.016Z,51.05
2022-10-22T23:14:12.974Z,51.03
2022-10-22T23:16:43.546Z,50.81
2022-10-22T23:19:15.902Z,50.99
2022-10-22T23:21:50.180Z,50.94
2022-10-22T23:24:21.621Z,50.79
2022-10-22T23:26:52.167Z,50.77
2022-10-22T23:29:25.503Z,50.58
2022-10-22T23:31:54.253Z,50.88
2022-10-22T23:34:25.195Z,51.12
2022-10-22T23:36:54.791Z,50.54
2022-10-22T23:39:26.199Z,50.46
2022-10-22T23:41:54.846Z,50.52
2022-10-22T23:44:24.251Z,50.61
2022-10-22T23:46:52.532Z,50.51
2022-10-22T23:49:20.548Z,50.28
2022-10-22T23:51:48.481Z,50.59
2022-10-22T23:54:17.797Z,50.52
2022-10-22T23:56:45.858Z,50.42
